Terminal Aerodrome Forecast
Issued by NWS

Home | Current Version | Previous Version | Text Only | Print | Product List | Glossary On
Versions: 1 2 3 4 5 6 7 8 9 10 11 12 13 14 15 16 17
000
FTUS44 KMAF 310500
TAFINK
TAF
KINK 310520Z 3106/0106 06010KT P6SM SCT100 OVC200
     FM310700 03015G22KT P6SM SCT120 BKN250
     FM311200 04008KT P6SM FEW050 BKN200=

USA.gov is the U.S. government's official web portal to all federal, state and local government web resources and services.